createdAt,value
2023-02-05T00:00:29.508Z,100097.47
2023-02-05T00:01:52.370Z,100094.13
2023-02-05T00:03:14.279Z,100085.63
2023-02-05T00:04:37.321Z,100093.34
2023-02-05T00:05:59.523Z,100091.66
2023-02-05T00:07:24.118Z,100095.13
2023-02-05T00:08:45.963Z,100096.88
2023-02-05T00:10:09.132Z,100101.16
2023-02-05T00:11:32.589Z,100102.00
2023-02-05T00:12:55.877Z,100105.41
2023-02-05T00:14:17.645Z,100111.38
2023-02-05T00:15:43.129Z,100100.28
2023-02-05T00:17:05.016Z,100112.22
2023-02-05T00:18:27.809Z,100108.78
2023-02-05T00:19:50.815Z,100108.78
2023-02-05T00:21:14.381Z,100112.22
2023-02-05T00:22:37.626Z,100111.34
2023-02-05T00:24:00.487Z,100115.59
2023-02-05T00:25:22.295Z,100121.53
2023-02-05T00:26:45.194Z,100122.38
2023-02-05T00:28:08.386Z,100124.06
2023-02-05T00:29:31.627Z,100123.19
2023-02-05T00:30:54.644Z,100122.28
2023-02-05T00:32:17.573Z,100127.41
2023-02-05T00:33:39.552Z,100122.28
2023-02-05T00:35:03.254Z,100125.63
2023-02-05T00:36:26.133Z,100131.59
2023-02-05T00:37:50.394Z,100120.50
2023-02-05T00:39:15.033Z,100122.19
2023-02-05T00:40:37.855Z,100126.47
2023-02-05T00:41:59.979Z,100115.38
2023-02-05T00:43:22.944Z,100124.75
2023-02-05T00:44:45.758Z,100126.44
2023-02-05T00:46:12.210Z,100123.84
2023-02-05T00:47:34.305Z,100121.31
2023-02-05T00:48:57.229Z,100121.31
2023-02-05T00:50:21.148Z,100118.78
2023-02-05T00:51:43.009Z,100115.38
2023-02-05T00:53:07.807Z,100117.13
2023-02-05T00:54:31.046Z,100124.84
2023-02-05T00:55:53.250Z,100126.56
2023-02-05T00:57:16.892Z,100120.59
2023-02-05T00:58:39.703Z,100121.44
2023-02-05T01:00:02.725Z,100128.28
2023-02-05T01:01:26.020Z,100127.41
2023-02-05T01:02:50.053Z,100123.16
2023-02-05T01:04:12.937Z,100118.91
2023-02-05T01:05:37.708Z,100119.72
2023-02-05T01:06:59.749Z,100118.00
2023-02-05T01:08:24.075Z,100110.34
2023-02-05T01:09:47.255Z,100111.19
2023-02-05T01:11:11.307Z,100106.06
2023-02-05T01:12:34.722Z,100107.75
2023-02-05T01:13:57.008Z,100106.94
2023-02-05T01:15:20.592Z,100102.66
2023-02-05T01:16:42.678Z,100107.78
2023-02-05T01:18:05.894Z,100104.41
2023-02-05T01:19:28.034Z,100109.56
2023-02-05T01:20:50.967Z,100107.00
2023-02-05T01:22:13.052Z,100109.59
2023-02-05T01:23:37.233Z,100113.88
2023-02-05T01:27:03.926Z,100114.78
2023-02-05T01:28:26.222Z,100122.47
2023-02-05T01:29:50.202Z,100120.78
2023-02-05T01:31:13.317Z,100128.47
2023-02-05T01:32:35.683Z,100125.94
2023-02-05T01:33:58.511Z,100129.41
2023-02-05T01:35:21.369Z,100136.25
2023-02-05T01:36:43.345Z,100126.91
2023-02-05T01:38:06.081Z,100128.63
2023-02-05T01:39:40.129Z,100130.34
2023-02-05T01:41:02.045Z,100135.50
2023-02-05T01:42:27.728Z,100129.56
2023-02-05T01:44:10.466Z,100132.16
2023-02-05T01:45:50.946Z,100138.13
2023-02-05T01:47:13.906Z,100124.56
2023-02-05T01:48:39.307Z,100136.47
2023-02-05T01:50:02.402Z,100130.53
2023-02-05T01:51:25.974Z,100133.13
2023-02-05T01:52:47.964Z,100136.53
2023-02-05T01:54:11.067Z,100138.22
2023-02-05T01:55:36.239Z,100139.97
2023-02-05T01:57:14.002Z,100139.09
2023-02-05T01:58:38.418Z,100138.25
2023-02-05T02:00:01.408Z,100139.09
2023-02-05T02:01:24.534Z,100137.41
2023-02-05T02:02:47.502Z,100141.66
2023-02-05T02:04:11.386Z,100141.63
2023-02-05T02:05:33.932Z,100135.69
2023-02-05T02:06:57.124Z,100140.75
2023-02-05T02:08:19.069Z,100141.59
2023-02-05T02:09:43.424Z,100146.66
2023-02-05T02:11:08.664Z,100143.22
2023-02-05T02:12:35.245Z,100142.34
2023-02-05T02:14:00.862Z,100142.31
2023-02-05T02:15:24.488Z,100140.56
2023-02-05T02:16:48.071Z,100144.78
2023-02-05T02:18:28.495Z,100147.28
2023-02-05T02:19:35.074Z,100143.00
2023-02-05T02:20:38.279Z,100141.28
2023-02-05T02:21:57.825Z,100144.63
2023-02-05T02:23:09.757Z,100147.16
2023-02-05T02:24:38.118Z,100151.34
2023-02-05T02:26:12.880Z,100150.44
2023-02-05T02:27:33.902Z,100146.13
2023-02-05T02:28:42.198Z,100151.13
2023-02-05T02:29:48.803Z,100151.13
2023-02-05T02:30:59.453Z,100151.94
2023-02-05T02:32:11.850Z,100153.59
2023-02-05T02:33:19.021Z,100151.84
2023-02-05T02:34:33.102Z,100151.81
2023-02-05T02:35:43.098Z,100152.56
2023-02-05T02:36:49.919Z,100161.03
2023-02-05T02:37:58.637Z,100150.84
2023-02-05T02:39:05.418Z,100155.00
2023-02-05T02:40:12.478Z,100156.66
2023-02-05T02:41:18.699Z,100155.75
2023-02-05T02:42:25.552Z,100159.06
2023-02-05T02:43:31.015Z,100159.00
2023-02-05T02:44:40.425Z,100152.22
2023-02-05T02:45:46.564Z,100169.19
2023-02-05T02:46:55.454Z,100167.56
2023-02-05T02:47:59.379Z,100160.91
2023-02-05T02:49:06.405Z,100163.47
2023-02-05T02:50:12.245Z,100160.19
2023-02-05T02:51:17.197Z,100158.53
2023-02-05T02:52:21.067Z,100157.78
2023-02-05T02:53:27.363Z,100162.06
2023-02-05T02:54:29.527Z,100164.69
2023-02-05T02:55:37.004Z,100155.41
2023-02-05T02:56:40.467Z,100162.25
2023-02-05T02:57:44.949Z,100166.53
2023-02-05T02:58:49.881Z,100158.94
2023-02-05T02:59:58.308Z,100153.91
2023-02-05T03:01:01.942Z,100159.00
2023-02-05T03:02:07.302Z,100156.50
2023-02-05T03:03:10.903Z,100162.50
2023-02-05T03:04:19.803Z,100155.75
2023-02-05T03:05:22.701Z,100160.88
2023-02-05T03:06:27.343Z,100161.75
2023-02-05T03:07:32.316Z,100159.16
2023-02-05T03:08:39.761Z,100163.44
2023-02-05T03:09:46.043Z,100165.97
2023-02-05T03:10:52.142Z,100165.97
2023-02-05T03:11:54.491Z,100158.34
2023-02-05T03:12:59.865Z,100162.56
2023-02-05T03:14:03.302Z,100159.22
2023-02-05T03:15:12.524Z,100155.81
2023-02-05T03:16:15.890Z,100155.81
2023-02-05T03:17:19.872Z,100151.59
2023-02-05T03:18:24.611Z,100151.59
2023-02-05T03:19:27.951Z,100153.31
2023-02-05T03:20:33.508Z,100153.31
2023-02-05T03:21:41.688Z,100161.81
2023-02-05T03:22:43.620Z,100156.72
2023-02-05T03:23:46.901Z,100158.41
2023-02-05T03:24:49.978Z,100151.59
2023-02-05T03:25:53.138Z,100160.94
2023-02-05T03:26:59.627Z,100160.09
2023-02-05T03:28:03.068Z,100160.09
2023-02-05T03:29:10.170Z,100152.44
2023-02-05T03:30:17.460Z,100158.38
2023-02-05T03:31:20.819Z,100159.22
2023-02-05T03:32:33.298Z,100156.69
2023-02-05T03:33:42.016Z,100153.28
2023-02-05T03:34:53.341Z,100153.28
2023-02-05T03:35:59.938Z,100154.16
2023-02-05T03:37:11.727Z,100155.00
2023-02-05T03:38:39.536Z,100155.03
2023-02-05T03:39:50.937Z,100155.84
2023-02-05T03:40:55.828Z,100155.03
2023-02-05T03:42:09.755Z,100156.72
2023-02-05T03:43:19.683Z,100155.03
2023-02-05T03:44:47.174Z,100159.22
2023-02-05T03:45:56.633Z,100157.53
2023-02-05T03:47:02.671Z,100160.94
2023-02-05T03:48:16.279Z,100162.63
2023-02-05T03:49:21.372Z,100148.16
2023-02-05T03:50:29.363Z,100154.09
2023-02-05T03:51:38.077Z,100153.19
2023-02-05T03:52:47.813Z,100154.06
2023-02-05T03:53:58.358Z,100148.91
2023-02-05T03:55:04.782Z,100151.38
2023-02-05T03:56:11.137Z,100149.63
2023-02-05T03:57:17.630Z,100147.88
2023-02-05T03:58:25.274Z,100153.72
2023-02-05T03:59:27.989Z,100148.59
2023-02-05T04:00:31.617Z,100152.75
2023-02-05T04:01:36.836Z,100151.00
2023-02-05T04:02:39.850Z,100152.66
2023-02-05T04:03:42.441Z,100153.47
2023-02-05T04:04:46.563Z,100156.81
2023-02-05T04:05:49.508Z,100156.75
2023-02-05T04:06:54.413Z,100153.31
2023-02-05T04:07:57.948Z,100158.34
2023-02-05T04:09:06.366Z,100153.22
2023-02-05T04:10:09.855Z,100157.41
2023-02-05T04:11:14.130Z,100161.63
2023-02-05T04:12:18.745Z,100162.44
2023-02-05T04:13:22.820Z,100161.53
2023-02-05T04:14:24.962Z,100164.88
2023-02-05T04:15:28.185Z,100168.19
2023-02-05T04:16:32.649Z,100163.91
2023-02-05T04:17:38.607Z,100159.63
2023-02-05T04:18:41.643Z,100161.31
2023-02-05T04:19:43.782Z,100164.69
2023-02-05T04:20:49.006Z,100163.84
2023-02-05T04:21:54.401Z,100163.00
2023-02-05T04:22:57.661Z,100162.09
2023-02-05T04:24:00.734Z,100161.25
2023-02-05T04:25:04.274Z,100160.34
2023-02-05T04:26:06.389Z,100165.34
2023-02-05T04:27:15.662Z,100166.97
2023-02-05T04:28:17.789Z,100159.31
2023-02-05T04:29:21.386Z,100154.19
2023-02-05T04:30:26.085Z,100162.56
2023-02-05T04:31:29.136Z,100158.28
2023-02-05T04:32:31.985Z,100161.63
2023-02-05T04:33:36.512Z,100170.03
2023-02-05T04:34:38.465Z,100169.13
2023-02-05T04:35:43.886Z,100175.81
2023-02-05T04:36:48.485Z,100172.41
2023-02-05T04:37:51.345Z,100173.22
2023-02-05T04:38:54.614Z,100171.53
2023-02-05T04:39:57.766Z,100171.53
2023-02-05T04:41:00.642Z,100173.19
2023-02-05T04:42:02.746Z,100171.53
2023-02-05T04:43:06.020Z,100174.00
2023-02-05T04:44:08.227Z,100173.13
2023-02-05T04:45:13.307Z,100171.44
2023-02-05T04:46:16.771Z,100173.06
2023-02-05T04:47:18.807Z,100181.53
2023-02-05T04:48:22.283Z,100178.13
2023-02-05T04:49:25.703Z,100179.78
2023-02-05T04:50:28.642Z,100177.22
2023-02-05T04:51:30.784Z,100180.59
2023-02-05T04:52:33.651Z,100185.66
2023-02-05T04:53:35.624Z,100180.56
2023-02-05T04:54:57.363Z,100179.72
2023-02-05T04:56:05.527Z,100183.06
2023-02-05T04:57:08.422Z,100183.03
2023-02-05T04:58:10.443Z,100183.81
2023-02-05T04:59:31.803Z,100194.81
2023-02-05T05:00:33.845Z,100195.63
2023-02-05T05:01:36.984Z,100195.63
2023-02-05T05:02:38.942Z,100207.41
2023-02-05T05:03:42.320Z,100206.56
2023-02-05T05:04:45.607Z,100199.72
2023-02-05T05:05:48.683Z,100209.81
2023-02-05T05:06:51.181Z,100209.78
2023-02-05T05:07:54.202Z,100203.88
2023-02-05T05:08:56.313Z,100208.88
2023-02-05T05:09:59.732Z,100212.28
2023-02-05T05:11:06.478Z,100215.63
2023-02-05T05:12:09.542Z,100214.75
2023-02-05T05:13:11.542Z,100216.44
2023-02-05T05:14:14.521Z,100220.66
2023-02-05T05:15:16.689Z,100224.81
2023-02-05T05:16:20.218Z,100223.97
2023-02-05T05:17:22.202Z,100226.44
2023-02-05T05:18:25.250Z,100228.97
2023-02-05T05:19:27.302Z,100229.81
2023-02-05T05:20:31.642Z,100230.56
2023-02-05T05:21:34.062Z,100228.69
2023-02-05T05:22:37.562Z,100238.78
2023-02-05T05:23:39.544Z,100237.03
2023-02-05T05:24:42.784Z,100236.16
2023-02-05T05:25:46.361Z,100231.94
2023-02-05T05:26:49.440Z,100244.56
2023-02-05T05:27:51.455Z,100242.84
2023-02-05T05:28:55.161Z,100239.38
2023-02-05T05:29:57.100Z,100241.88
2023-02-05T05:31:00.122Z,100240.13
2023-02-05T05:32:02.384Z,100239.25
2023-02-05T05:33:05.582Z,100250.22
2023-02-05T05:34:07.699Z,100245.16
2023-02-05T05:35:10.870Z,100251.91
2023-02-05T05:36:14.373Z,100252.75
2023-02-05T05:37:17.441Z,100252.69
2023-02-05T05:38:20.006Z,100245.09
2023-02-05T05:39:45.918Z,100250.97
2023-02-05T05:41:06.200Z,100250.88
2023-02-05T05:42:29.165Z,100255.88
2023-02-05T05:43:50.284Z,100260.03
2023-02-05T05:44:53.086Z,100252.38
2023-02-05T05:45:56.731Z,100256.56
2023-02-05T05:46:58.745Z,100254.81
2023-02-05T05:48:02.318Z,100259.78
2023-02-05T05:49:04.552Z,100266.41
2023-02-05T05:50:08.280Z,100264.63
2023-02-05T05:51:10.480Z,100266.25
2023-02-05T05:52:15.129Z,100270.41
2023-02-05T05:53:17.222Z,100267.91
2023-02-05T05:54:20.277Z,100267.09
2023-02-05T05:55:22.363Z,100270.50
2023-02-05T05:56:25.404Z,100267.16
2023-02-05T05:57:27.654Z,100279.06
2023-02-05T05:58:30.594Z,100268.19
2023-02-05T05:59:32.667Z,100271.69
2023-02-05T06:00:35.734Z,100269.16
2023-02-05T06:01:37.778Z,100271.66
2023-02-05T06:02:43.898Z,100272.47
2023-02-05T06:03:46.337Z,100275.88
2023-02-05T06:04:49.353Z,100276.72
2023-02-05T06:05:51.551Z,100278.44
2023-02-05T06:06:59.293Z,100276.75
2023-02-05T06:08:02.861Z,100278.50
2023-02-05T06:09:06.131Z,100271.75
2023-02-05T06:10:08.820Z,100271.78
2023-02-05T06:11:12.033Z,100276.84
2023-02-05T06:12:14.048Z,100282.75
2023-02-05T06:13:17.349Z,100276.84
2023-02-05T06:14:19.429Z,100272.63
2023-02-05T06:15:23.209Z,100280.22
2023-02-05T06:16:25.238Z,100286.09
2023-02-05T06:17:28.273Z,100286.03
2023-02-05T06:18:30.799Z,100281.03
2023-02-05T06:19:33.950Z,100285.28
2023-02-05T06:20:35.969Z,100274.41
2023-02-05T06:21:39.010Z,100280.41
2023-02-05T06:22:41.770Z,100289.88
2023-02-05T06:23:46.104Z,100280.69
2023-02-05T06:24:48.171Z,100285.03
2023-02-05T06:25:51.746Z,100290.19
2023-02-05T06:26:53.745Z,100289.44
2023-02-05T06:27:56.883Z,100285.31
2023-02-05T06:29:03.362Z,100283.72
2023-02-05T06:30:07.110Z,100305.78
2023-02-05T06:31:09.218Z,100299.97
2023-02-05T06:32:12.636Z,100299.28
2023-02-05T06:33:14.660Z,100299.38
2023-02-05T06:34:17.571Z,100301.16
2023-02-05T06:35:19.636Z,100307.13
2023-02-05T06:36:22.626Z,100302.97
2023-02-05T06:37:34.122Z,100301.38
2023-02-05T06:38:37.467Z,100299.78
2023-02-05T06:39:41.246Z,100306.63
2023-02-05T06:40:44.286Z,100314.31
2023-02-05T06:41:46.527Z,100313.53
2023-02-05T06:42:49.522Z,100319.47
2023-02-05T06:43:51.542Z,100303.50
2023-02-05T06:44:55.105Z,100301.81
2023-02-05T06:45:57.648Z,100302.72
2023-02-05T06:47:01.008Z,100306.97
2023-02-05T06:48:03.226Z,100302.81
2023-02-05T06:49:06.220Z,100307.09
2023-02-05T06:50:08.884Z,100299.53
2023-02-05T06:51:13.552Z,100307.22
2023-02-05T06:52:15.486Z,100300.66
2023-02-05T06:53:18.467Z,100298.41
2023-02-05T06:54:20.624Z,100300.31
2023-02-05T06:55:24.986Z,100297.28
2023-02-05T06:56:27.423Z,100295.97
2023-02-05T06:57:31.867Z,100286.00
2023-02-05T06:58:33.827Z,100284.50
2023-02-05T06:59:36.728Z,100289.78
2023-02-05T07:00:38.801Z,100291.66
2023-02-05T07:01:41.761Z,100288.34
2023-02-05T07:02:43.802Z,100289.28
2023-02-05T07:03:48.460Z,100287.66
2023-02-05T07:04:50.421Z,100288.56
2023-02-05T07:05:53.266Z,100281.81
2023-02-05T07:06:55.645Z,100283.56
2023-02-05T07:07:59.797Z,100281.03
2023-02-05T07:09:01.849Z,100296.31
2023-02-05T07:10:05.405Z,100292.97
2023-02-05T07:11:08.715Z,100298.06
2023-02-05T07:12:11.638Z,100295.53
2023-02-05T07:13:13.830Z,100297.22
2023-02-05T07:14:16.866Z,100298.94
2023-02-05T07:15:18.908Z,100305.72
2023-02-05T07:16:22.050Z,100308.28
2023-02-05T07:17:24.714Z,100302.31
2023-02-05T07:18:27.608Z,100307.38
2023-02-05T07:19:29.607Z,100303.97
2023-02-05T07:20:32.629Z,100310.75
2023-02-05T07:21:34.697Z,100298.78
2023-02-05T07:22:37.745Z,100304.72
2023-02-05T07:23:39.766Z,100310.66
2023-02-05T07:24:42.823Z,100303.78
2023-02-05T07:25:45.023Z,100298.59
2023-02-05T07:26:49.444Z,100306.22
2023-02-05T07:27:51.820Z,100309.56
2023-02-05T07:28:55.345Z,100305.28
2023-02-05T07:29:57.227Z,100309.53
2023-02-05T07:31:04.301Z,100311.22
2023-02-05T07:32:07.399Z,100317.09
2023-02-05T07:33:10.772Z,100320.47
2023-02-05T07:34:12.716Z,100327.22
2023-02-05T07:35:16.115Z,100326.28
2023-02-05T07:36:18.764Z,100328.84
2023-02-05T07:37:24.013Z,100328.78
2023-02-05T07:38:26.191Z,100331.41
2023-02-05T07:39:31.164Z,100334.88
2023-02-05T07:40:33.142Z,100328.13
2023-02-05T07:41:36.269Z,100332.50
2023-02-05T07:42:41.436Z,100331.69
2023-02-05T07:43:44.981Z,100341.09
2023-02-05T07:44:48.505Z,100339.47
2023-02-05T07:45:56.218Z,100343.78
2023-02-05T07:46:59.032Z,100342.97
2023-02-05T07:48:00.998Z,100342.13
2023-02-05T07:49:03.917Z,100343.00
2023-02-05T07:50:07.325Z,100355.81
2023-02-05T07:51:15.984Z,100346.44
2023-02-05T07:52:18.856Z,100344.75
2023-02-05T07:53:21.157Z,100345.59
2023-02-05T07:54:24.677Z,100344.72
2023-02-05T07:55:26.615Z,100332.78
2023-02-05T07:56:29.574Z,100340.41
2023-02-05T07:57:31.606Z,100341.22
2023-02-05T07:58:35.941Z,100335.16
2023-02-05T07:59:37.915Z,100337.63
2023-02-05T08:00:41.145Z,100337.53
2023-02-05T08:01:43.073Z,100341.69
2023-02-05T08:02:46.115Z,100339.00
2023-02-05T08:03:48.094Z,100342.34
2023-02-05T08:04:51.188Z,100343.13
2023-02-05T08:05:53.112Z,100346.47
2023-02-05T08:06:56.448Z,100347.31
2023-02-05T08:07:58.454Z,100353.28
2023-02-05T08:09:01.412Z,100348.16
2023-02-05T08:10:04.457Z,100348.16
2023-02-05T08:11:08.178Z,100350.66
2023-02-05T08:12:10.048Z,100354.09
2023-02-05T08:13:13.411Z,100354.97
2023-02-05T08:14:16.721Z,100353.28
2023-02-05T08:15:19.881Z,100361.00
2023-02-05T08:16:22.262Z,100356.75
2023-02-05T08:17:25.262Z,100354.22
2023-02-05T08:18:27.146Z,100359.38
2023-02-05T08:19:30.068Z,100368.81
2023-02-05T08:20:32.297Z,100374.81
2023-02-05T08:21:35.210Z,100372.28
2023-02-05T08:22:38.665Z,100379.97
2023-02-05T08:23:41.511Z,100380.03
2023-02-05T08:24:44.370Z,100383.44
2023-02-05T08:25:46.454Z,100382.59
2023-02-05T08:26:49.406Z,100387.75
2023-02-05T08:27:51.271Z,100380.03
2023-02-05T08:28:54.269Z,100391.09
2023-02-05T08:29:57.580Z,100381.72
2023-02-05T08:31:00.600Z,100387.66
2023-02-05T08:32:02.561Z,100394.50
2023-02-05T08:33:05.489Z,100392.78
2023-02-05T08:34:07.460Z,100399.63
2023-02-05T08:35:10.330Z,100393.66
2023-02-05T08:36:13.324Z,100397.94
2023-02-05T08:37:16.112Z,100389.44
2023-02-05T08:38:18.188Z,100394.59
2023-02-05T08:39:20.972Z,100393.78
2023-02-05T08:40:22.848Z,100392.97
2023-02-05T08:41:26.215Z,100392.13
2023-02-05T08:42:28.124Z,100393.00
2023-02-05T08:43:31.013Z,100388.72
2023-02-05T08:44:34.113Z,100394.72
2023-02-05T08:45:39.075Z,100393.03
2023-02-05T08:46:49.718Z,100394.72
2023-02-05T08:47:52.988Z,100393.00
2023-02-05T08:48:55.828Z,100396.38
2023-02-05T08:49:58.732Z,100393.78
2023-02-05T08:51:00.744Z,100399.72
2023-02-05T08:52:03.827Z,100396.28
2023-02-05T08:53:07.140Z,100399.72
2023-02-05T08:54:13.114Z,100396.31
2023-02-05T08:55:18.230Z,100401.47
2023-02-05T08:56:21.165Z,100389.50
2023-02-05T08:57:27.177Z,100401.47
2023-02-05T08:58:30.549Z,100404.06
2023-02-05T08:59:33.336Z,100393.81
2023-02-05T09:00:39.025Z,100399.84
2023-02-05T09:01:45.718Z,100393.03
2023-02-05T09:02:48.902Z,100399.88
2023-02-05T09:03:51.247Z,100393.06
2023-02-05T09:05:01.847Z,100396.47
2023-02-05T09:06:12.541Z,100394.81
2023-02-05T09:07:14.784Z,100403.31
2023-02-05T09:08:17.995Z,100405.00
2023-02-05T09:09:20.039Z,100399.88
2023-02-05T09:10:23.004Z,100396.47
2023-02-05T09:11:26.682Z,100399.88
2023-02-05T09:12:29.579Z,100399.88
2023-02-05T09:13:32.519Z,100398.22
2023-02-05T09:14:36.373Z,100399.91
2023-02-05T09:15:43.644Z,100406.72
2023-02-05T09:16:46.597Z,100400.78
2023-02-05T09:17:48.559Z,100400.78
2023-02-05T09:18:52.268Z,100402.47
2023-02-05T09:19:54.387Z,100403.34
2023-02-05T09:20:57.346Z,100405.03
2023-02-05T09:22:00.283Z,100415.28
2023-02-05T09:23:02.318Z,100413.56
2023-02-05T09:24:05.866Z,100412.72
2023-02-05T09:25:08.252Z,100423.81
2023-02-05T09:26:11.260Z,100417.00
2023-02-05T09:27:14.961Z,100426.34
2023-02-05T09:28:17.927Z,100417.81
2023-02-05T09:29:21.521Z,100416.97
2023-02-05T09:30:23.561Z,100423.78
2023-02-05T09:31:27.921Z,100410.16
2023-02-05T09:32:31.109Z,100418.66
2023-02-05T09:33:32.987Z,100420.34
2023-02-05T09:34:35.892Z,100410.16
2023-02-05T09:35:57.564Z,100416.97
2023-02-05T09:37:00.389Z,100422.97
2023-02-05T09:38:03.389Z,100424.66
2023-02-05T09:39:15.886Z,100423.78
2023-02-05T09:40:28.188Z,100427.19
2023-02-05T09:41:33.784Z,100419.50
2023-02-05T09:42:39.819Z,100422.94
2023-02-05T09:43:49.535Z,100420.34
2023-02-05T09:45:00.053Z,100421.16
2023-02-05T09:46:04.567Z,100418.63
2023-02-05T09:47:13.152Z,100417.78
2023-02-05T09:48:34.387Z,100430.63
2023-02-05T09:49:42.075Z,100428.06
2023-02-05T09:50:43.924Z,100422.13
2023-02-05T09:51:48.826Z,100433.25
2023-02-05T09:52:51.116Z,100428.97
2023-02-05T09:53:57.746Z,100420.44
2023-02-05T09:55:02.174Z,100423.88
2023-02-05T09:56:08.253Z,100417.06
2023-02-05T09:57:12.758Z,100435.00
2023-02-05T09:58:18.600Z,100434.13
2023-02-05T09:59:23.939Z,100439.25
2023-02-05T10:00:27.836Z,100429.88
2023-02-05T10:01:37.988Z,100425.59
2023-02-05T10:02:50.466Z,100429.03
2023-02-05T10:03:56.400Z,100429.84
2023-02-05T10:04:59.308Z,100423.91
2023-02-05T10:06:13.221Z,100433.25
2023-02-05T10:07:22.690Z,100429.88
2023-02-05T10:08:29.715Z,100429.00
2023-02-05T10:09:45.040Z,100429.00
2023-02-05T10:10:50.083Z,100437.50
2023-02-05T10:11:59.737Z,100430.69
2023-02-05T10:13:27.134Z,100428.16
2023-02-05T10:14:43.335Z,100416.22
2023-02-05T10:15:58.191Z,100420.50
2023-02-05T10:17:21.201Z,100417.09
2023-02-05T10:18:29.576Z,100420.53
2023-02-05T10:19:56.006Z,100421.38
2023-02-05T10:21:02.939Z,100426.47
2023-02-05T10:22:11.839Z,100424.78
2023-02-05T10:23:17.003Z,100422.22
2023-02-05T10:24:37.420Z,100429.03
2023-02-05T10:25:47.820Z,100423.06
2023-02-05T10:26:52.543Z,100426.50
2023-02-05T10:27:58.736Z,100426.47
2023-02-05T10:29:27.542Z,100430.75
2023-02-05T10:30:32.114Z,100429.06
2023-02-05T10:31:43.921Z,100427.31
2023-02-05T10:32:56.238Z,100426.47
2023-02-05T10:34:21.076Z,100417.06
2023-02-05T10:35:25.899Z,100423.00
2023-02-05T10:36:28.758Z,100416.19
2023-02-05T10:37:40.403Z,100408.47
2023-02-05T10:38:44.928Z,100404.13
2023-02-05T10:39:49.498Z,100402.41
2023-02-05T10:40:54.470Z,100407.41
2023-02-05T10:42:01.320Z,100412.44
2023-02-05T10:43:11.157Z,100399.53
2023-02-05T10:44:18.850Z,100395.94
2023-02-05T10:45:22.909Z,100398.28
2023-02-05T10:46:31.420Z,100397.22
2023-02-05T10:47:46.108Z,100399.56
2023-02-05T10:48:52.382Z,100399.34
2023-02-05T10:49:59.074Z,100394.84
2023-02-05T10:51:03.765Z,100394.63
2023-02-05T10:52:06.603Z,100397.97
2023-02-05T10:53:08.527Z,100393.69
2023-02-05T10:54:20.100Z,100397.13
2023-02-05T10:55:22.186Z,100394.66
2023-02-05T10:56:25.051Z,100399.88
2023-02-05T10:57:31.735Z,100391.41
2023-02-05T10:58:40.805Z,100396.56
2023-02-05T10:59:51.012Z,100400.03
2023-02-05T11:00:53.356Z,100406.09
2023-02-05T11:01:57.903Z,100397.63
2023-02-05T11:02:59.990Z,100394.31
2023-02-05T11:04:05.498Z,100392.66
2023-02-05T11:05:18.196Z,100394.44
2023-02-05T11:06:20.458Z,100391.06
2023-02-05T11:07:27.336Z,100389.38
2023-02-05T11:08:35.715Z,100386.78
2023-02-05T11:09:38.626Z,100386.81
2023-02-05T11:10:41.672Z,100392.88
2023-02-05T11:11:44.552Z,100386.88
2023-02-05T11:12:50.066Z,100378.28
2023-02-05T11:13:56.984Z,100381.66
2023-02-05T11:15:01.582Z,100388.44
2023-02-05T11:16:05.831Z,100389.25
2023-02-05T11:17:21.697Z,100368.63
2023-02-05T11:18:25.148Z,100377.97
2023-02-05T11:19:29.408Z,100376.13
2023-02-05T11:20:35.815Z,100380.31
2023-02-05T11:21:54.903Z,100379.41
2023-02-05T11:23:09.475Z,100373.44
2023-02-05T11:24:22.797Z,100375.13
2023-02-05T11:25:26.480Z,100381.97
2023-02-05T11:26:29.509Z,100374.22
2023-02-05T11:27:32.239Z,100373.34
2023-02-05T11:28:36.727Z,100381.03
2023-02-05T11:29:38.664Z,100375.09
2023-02-05T11:30:57.480Z,100383.72
2023-02-05T11:32:00.696Z,100371.88
2023-02-05T11:33:19.577Z,100378.00
2023-02-05T11:34:22.480Z,100386.63
2023-02-05T11:35:27.120Z,100379.88
2023-02-05T11:36:31.366Z,100378.28
2023-02-05T11:37:34.496Z,100375.75
2023-02-05T11:38:44.931Z,100375.69
2023-02-05T11:39:53.799Z,100375.66
2023-02-05T11:40:58.898Z,100373.91
2023-02-05T11:42:09.798Z,100372.91
2023-02-05T11:43:27.349Z,100373.66
2023-02-05T11:44:32.766Z,100367.63
2023-02-05T11:45:37.657Z,100374.59
2023-02-05T11:46:47.490Z,100372.13
2023-02-05T11:47:49.639Z,100374.69
2023-02-05T11:48:58.540Z,100365.25
2023-02-05T11:50:00.715Z,100359.28
2023-02-05T11:51:05.242Z,100362.66
2023-02-05T11:52:12.093Z,100366.00
2023-02-05T11:53:17.277Z,100364.25
2023-02-05T11:54:24.454Z,100363.44
2023-02-05T11:55:29.688Z,100358.38
2023-02-05T11:56:32.522Z,100358.44
2023-02-05T11:57:37.820Z,100361.00
2023-02-05T11:58:40.748Z,100359.31
2023-02-05T11:59:44.587Z,100360.25
2023-02-05T12:00:52.406Z,100364.56
2023-02-05T12:01:55.284Z,100358.53
2023-02-05T12:03:05.638Z,100361.78
2023-02-05T12:04:18.367Z,100353.13
2023-02-05T12:05:23.320Z,100359.81
2023-02-05T12:06:29.424Z,100354.50
2023-02-05T12:07:37.606Z,100355.25
2023-02-05T12:08:45.108Z,100357.78
2023-02-05T12:09:48.396Z,100350.13
2023-02-05T12:10:57.645Z,100351.16
2023-02-05T12:12:07.276Z,100351.34
2023-02-05T12:13:19.692Z,100348.94
2023-02-05T12:14:29.031Z,100344.81
2023-02-05T12:15:37.527Z,100357.78
2023-02-05T12:16:47.603Z,100356.25
2023-02-05T12:17:55.563Z,100366.63
2023-02-05T12:19:03.067Z,100370.16
2023-02-05T12:20:13.308Z,100364.28
2023-02-05T12:21:23.924Z,100366.09
2023-02-05T12:22:36.739Z,100376.44
2023-02-05T12:23:58.834Z,100357.75
2023-02-05T12:25:15.751Z,100365.47
2023-02-05T12:26:27.953Z,100364.66
2023-02-05T12:27:47.663Z,100374.94
2023-02-05T12:28:57.228Z,100365.59
2023-02-05T12:30:32.267Z,100363.88
2023-02-05T12:31:46.660Z,100359.66
2023-02-05T12:32:53.834Z,100362.16
2023-02-05T12:34:12.586Z,100361.31
2023-02-05T12:35:24.275Z,100356.97
2023-02-05T12:36:39.207Z,100353.50
2023-02-05T12:37:49.875Z,100366.22
2023-02-05T12:39:03.231Z,100366.13
2023-02-05T12:40:15.097Z,100359.19
2023-02-05T12:41:24.911Z,100354.91
2023-02-05T12:42:33.870Z,100361.69
2023-02-05T12:43:38.642Z,100360.03
2023-02-05T12:44:52.044Z,100360.94
2023-02-05T12:46:03.755Z,100360.91
2023-02-05T12:47:14.985Z,100354.97
2023-02-05T12:48:29.674Z,100362.69
2023-02-05T12:49:48.222Z,100361.03
2023-02-05T12:50:58.498Z,100357.69
2023-02-05T12:52:12.159Z,100357.72
2023-02-05T12:53:29.328Z,100368.81
2023-02-05T12:54:44.580Z,100360.25
2023-02-05T12:55:55.395Z,100360.19
2023-02-05T12:57:00.976Z,100360.84
2023-02-05T12:58:05.316Z,100362.41
2023-02-05T12:59:14.078Z,100358.88
2023-02-05T13:00:19.617Z,100364.69
2023-02-05T13:01:25.002Z,100360.31
2023-02-05T13:02:32.057Z,100354.13
2023-02-05T13:03:37.780Z,100365.91